Time;durP1;ratioP1;P1;durP2;ratioP2;P2;SDS_P1;SDS_P2;PMS_P1;PMS_P2;Temp;Humidity;BMP_temperature;BMP_pressure;BME280_temperature;BME280_humidity;BME280_pressure;Samples;Min_cycle;Max_cycle;Signal;HPM_P1;HPM_P2
2021/06/18 00:00:17;;;;;;;8.85;8.05;;;;;;;20.05;36.53;100914.38;4856128;28;97914;-75
2021/06/18 00:02:44;;;;;;;10.43;8.27;;;;;;;20.01;36.52;100914.47;4887677;28;100244;-75
2021/06/18 00:05:13;;;;;;;8.50;7.72;;;;;;;19.98;36.88;100920.78;4853110;28;98845;-76
2021/06/18 00:07:43;;;;;;;8.98;8.23;;;;;;;19.94;36.93;100911.84;4853032;28;97881;-75
2021/06/18 00:10:12;;;;;;;9.93;9.10;;;;;;;19.92;36.42;100913.66;4854178;28;97166;-77
2021/06/18 00:12:42;;;;;;;9.00;8.30;;;;;;;19.88;36.92;100916.41;4854072;28;100299;-76
2021/06/18 00:15:12;;;;;;;8.68;8.00;;;;;;;19.86;36.85;100915.53;4856871;28;97805;-76
2021/06/18 00:17:40;;;;;;;11.20;8.07;;;;;;;19.83;36.91;100912.88;4883029;28;97704;-76
2021/06/18 00:20:10;;;;;;;9.50;8.68;;;;;;;19.79;36.97;100906.63;4850241;28;97816;-75
2021/06/18 00:22:39;;;;;;;10.15;9.35;;;;;;;19.76;36.52;100912.09;4853862;28;99863;-76
2021/06/18 00:25:08;;;;;;;9.07;8.15;;;;;;;19.74;36.81;100905.81;4854344;28;97819;-75
2021/06/18 00:27:36;;;;;;;9.82;8.98;;;;;;;19.70;36.72;100906.75;4889287;28;97165;-76
2021/06/18 00:30:08;;;;;;;9.77;8.77;;;;;;;19.65;36.94;100905.03;4857582;28;97534;-76
2021/06/18 00:32:37;;;;;;;9.13;8.27;;;;;;;19.61;36.98;100901.50;4892852;28;98542;-75
2021/06/18 00:35:07;;;;;;;9.82;8.90;;;;;;;19.58;37.37;100901.53;4871160;28;98488;-75
2021/06/18 00:37:35;;;;;;;10.75;9.68;;;;;;;19.57;37.27;100906.97;4855717;28;97671;-75
2021/06/18 00:40:04;;;;;;;9.13;8.23;;;;;;;19.53;37.43;100907.94;4854396;28;97421;-76
2021/06/18 00:42:32;;;;;;;9.40;8.60;;;;;;;19.50;37.68;100902.56;4856648;28;98069;-75
2021/06/18 00:45:00;;;;;;;9.93;8.93;;;;;;;19.50;37.42;100899.88;4872803;28;99026;-77
2021/06/18 00:47:30;;;;;;;10.45;9.55;;;;;;;19.43;37.62;100898.16;4866665;28;97003;-78
2021/06/18 00:49:58;;;;;;;9.05;8.27;;;;;;;19.37;37.83;100900.94;4879814;28;96965;-78
2021/06/18 00:52:25;;;;;;;10.07;9.18;;;;;;;19.34;37.60;100893.78;4892943;28;97889;-76
2021/06/18 00:54:54;;;;;;;10.02;9.13;;;;;;;19.33;37.41;100899.19;4866784;28;99021;-76
2021/06/18 00:57:22;;;;;;;9.55;8.75;;;;;;;19.28;38.05;100896.50;4862292;28;96925;-76
2021/06/18 00:59:49;;;;;;;9.85;8.98;;;;;;;19.25;37.99;100899.25;4862175;28;98180;-78
2021/06/18 01:02:17;;;;;;;10.38;9.57;;;;;;;19.20;37.83;100887.63;4864074;28;97994;-77
2021/06/18 01:04:47;;;;;;;10.30;9.40;;;;;;;19.18;38.24;100896.66;4857327;28;97814;-78
2021/06/18 01:07:18;;;;;;;10.38;9.48;;;;;;;19.13;37.91;100896.72;4869007;28;98264;-76
2021/06/18 01:09:55;;;;;;;11.00;10.00;;;;;;;19.07;38.03;100890.50;4889516;28;97860;-76
2021/06/18 01:12:24;;;;;;;10.23;9.23;;;;;;;19.07;38.16;100890.50;4874035;28;99581;-76
2021/06/18 01:14:59;;;;;;;10.00;9.02;;;;;;;19.02;38.04;100882.47;4862638;28;98170;-76
2021/06/18 01:17:32;;;;;;;10.27;9.38;;;;;;;18.98;38.08;100878.91;4871072;28;97503;-76
2021/06/18 01:20:29;;;;;;;9.55;8.75;;;;;;;18.96;38.68;100877.13;4854513;28;97183;-76
2021/06/18 01:22:57;;;;;;;9.93;9.13;;;;;;;18.96;38.27;100880.75;4857139;28;98130;-76
2021/06/18 01:25:27;;;;;;;10.45;9.50;;;;;;;18.94;38.62;100881.66;4854694;28;97232;-76
2021/06/18 01:28:00;;;;;;;10.10;9.30;;;;;;;18.90;38.36;100882.59;4857340;28;97341;-76
2021/06/18 01:30:31;;;;;;;10.05;9.15;;;;;;;18.89;38.56;100883.53;4866515;28;98146;-76
2021/06/18 01:33:02;;;;;;;10.05;9.15;;;;;;;18.88;38.24;100885.31;4872230;28;97722;-77
2021/06/18 01:35:33;;;;;;;11.90;10.35;;;;;;;18.86;38.23;100880.88;4855910;28;97885;-77
2021/06/18 01:38:02;;;;;;;11.18;10.00;;;;;;;18.84;38.37;100877.28;4887058;28;97378;-77
2021/06/18 01:40:31;;;;;;;10.98;9.90;;;;;;;18.82;38.62;100874.59;4856734;28;97036;-77
2021/06/18 01:43:02;;;;;;;11.10;10.10;;;;;;;18.81;38.49;100877.31;4853398;28;98767;-76
2021/06/18 01:45:31;;;;;;;13.45;11.38;;;;;;;18.80;38.45;100879.13;4867801;28;97973;-76
2021/06/18 01:48:02;;;;;;;10.98;9.85;;;;;;;18.77;38.44;100875.56;4884904;28;97353;-77
2021/06/18 01:50:30;;;;;;;11.38;10.45;;;;;;;18.73;38.79;100877.38;4885845;28;97461;-76
2021/06/18 01:53:00;;;;;;;10.10;9.20;;;;;;;18.71;38.88;100876.53;4840058;28;99979;-77
2021/06/18 01:55:29;;;;;;;11.15;10.30;;;;;;;18.68;38.55;100875.63;4855689;28;97981;-75
2021/06/18 01:57:59;;;;;;;10.65;9.65;;;;;;;18.62;38.76;100875.69;4867277;28;98264;-76
2021/06/18 02:00:28;;;;;;;11.15;10.15;;;;;;;18.58;38.90;100868.56;4848709;28;97582;-76
2021/06/18 02:02:59;;;;;;;10.70;9.80;;;;;;;18.50;38.90;100863.22;4853800;28;97678;-75
2021/06/18 02:05:27;;;;;;;11.57;10.30;;;;;;;18.44;39.14;100878.59;4850911;28;100808;-75
2021/06/18 02:07:55;;;;;;;10.57;9.77;;;;;;;18.40;38.89;100872.34;4876530;28;97879;-75
2021/06/18 02:10:24;;;;;;;10.55;9.60;;;;;;;18.38;39.38;100870.56;4851473;28;97727;-76
2021/06/18 02:12:53;;;;;;;11.57;10.60;;;;;;;18.34;39.46;100868.78;4861910;28;99481;-75
2021/06/18 02:15:21;;;;;;;10.95;9.95;;;;;;;18.32;39.33;100870.59;4849540;28;99480;-76
2021/06/18 02:17:51;;;;;;;11.38;10.18;;;;;;;18.30;39.51;100870.63;4853492;28;98297;-76
2021/06/18 02:20:22;;;;;;;10.90;9.80;;;;;;;18.30;39.43;100872.41;4881859;28;97330;-75
2021/06/18 02:22:51;;;;;;;11.23;10.23;;;;;;;18.27;39.39;100867.97;4855485;28;99278;-76
2021/06/18 02:25:20;;;;;;;11.07;10.18;;;;;;;18.23;39.52;100868.88;4854273;28;98260;-76
2021/06/18 02:27:48;;;;;;;11.13;10.02;;;;;;;18.18;39.66;100869.84;4852255;28;97260;-75
2021/06/18 02:30:17;;;;;;;11.68;10.48;;;;;;;18.12;39.90;100877.97;4855209;28;97785;-76
2021/06/18 02:32:47;;;;;;;10.68;9.77;;;;;;;18.12;39.69;100872.56;4858668;28;98879;-77
2021/06/18 02:35:15;;;;;;;10.93;10.02;;;;;;;18.08;39.86;100868.09;4877955;28;99163;-75
2021/06/18 02:37:44;;;;;;;11.93;10.82;;;;;;;18.06;40.01;100872.66;4896074;28;97553;-76
2021/06/18 02:40:12;;;;;;;11.43;10.52;;;;;;;18.04;39.85;100872.63;4859475;28;98028;-77
2021/06/18 02:42:41;;;;;;;11.52;10.32;;;;;;;18.02;39.96;100872.63;4888466;28;99333;-76
2021/06/18 02:45:12;;;;;;;12.48;11.18;;;;;;;18.00;39.94;100874.41;4889172;28;99312;-75
2021/06/18 02:47:43;;;;;;;11.80;10.65;;;;;;;17.97;39.91;100871.75;4886923;28;98406;-75
2021/06/18 02:50:13;;;;;;;10.82;9.73;;;;;;;17.95;39.87;100870.88;4852678;28;96926;-75
2021/06/18 02:52:48;;;;;;;11.45;10.45;;;;;;;17.94;39.90;100863.72;4891886;28;97862;-76
2021/06/18 02:55:19;;;;;;;12.43;10.80;;;;;;;17.92;39.99;100867.31;4870194;28;98773;-75
2021/06/18 02:57:51;;;;;;;11.60;10.60;;;;;;;17.88;39.91;100866.44;4854525;28;97823;-75
2021/06/18 03:00:20;;;;;;;12.57;11.25;;;;;;;17.87;40.01;100861.09;4878594;28;97990;-77
2021/06/18 03:02:52;;;;;;;11.70;10.55;;;;;;;17.83;40.03;100854.84;4865846;28;97782;-76
2021/06/18 03:05:22;;;;;;;12.05;11.05;;;;;;;17.79;40.03;100857.53;4891767;28;99437;-77
2021/06/18 03:07:55;;;;;;;11.23;10.40;;;;;;;17.75;39.97;100853.97;4869045;28;97535;-76
2021/06/18 03:10:26;;;;;;;12.48;11.27;;;;;;;17.74;40.02;100857.59;4856823;28;97104;-76
2021/06/18 03:12:59;;;;;;;12.45;11.25;;;;;;;17.74;40.02;100864.75;4890602;28;101252;-76
2021/06/18 03:15:29;;;;;;;11.95;10.85;;;;;;;17.72;40.02;100867.47;4855888;28;98836;-76
2021/06/18 03:17:57;;;;;;;12.10;10.85;;;;;;;17.69;39.92;100875.53;4887257;28;97760;-76
2021/06/18 03:20:26;;;;;;;11.80;10.77;;;;;;;17.68;40.02;100873.78;4847479;28;98234;-76
2021/06/18 03:22:57;;;;;;;12.23;10.90;;;;;;;17.60;40.22;100881.00;4892018;28;97979;-76
2021/06/18 03:25:25;;;;;;;11.52;10.43;;;;;;;17.56;40.29;100883.72;4879937;28;99016;-76
2021/06/18 03:27:54;;;;;;;11.88;10.82;;;;;;;17.54;40.19;100882.84;4858345;28;96926;-78
2021/06/18 03:30:23;;;;;;;11.30;10.40;;;;;;;17.53;40.49;100881.06;4885807;28;97576;-78
2021/06/18 03:32:52;;;;;;;11.88;10.63;;;;;;;17.50;40.42;100881.97;4889256;28;100217;-76
2021/06/18 03:35:20;;;;;;;11.95;10.70;;;;;;;17.51;40.46;100885.56;4855168;28;100531;-76
2021/06/18 03:37:49;;;;;;;13.27;11.90;;;;;;;17.95;40.83;100878.06;4873143;28;97826;-76
2021/06/18 03:40:19;;;;;;;12.85;11.55;;;;;;;17.72;41.05;100888.09;4866673;28;97161;-75
2021/06/18 03:42:48;;;;;;;13.10;11.80;;;;;;;18.07;41.54;100880.72;4859309;28;98147;-76
2021/06/18 03:45:17;;;;;;;12.73;11.63;;;;;;;17.81;41.71;100891.63;4891644;28;98814;-75
2021/06/18 03:47:46;;;;;;;11.60;10.70;;;;;;;17.74;41.65;100887.19;4889858;28;97705;-76
2021/06/18 03:50:17;;;;;;;11.30;10.30;;;;;;;17.72;41.70;100890.78;4859965;28;96986;-77
2021/06/18 03:52:46;;;;;;;12.52;11.38;;;;;;;17.69;41.66;100894.38;4874943;28;99183;-77
2021/06/18 03:55:14;;;;;;;11.45;10.35;;;;;;;17.67;41.88;100893.53;4892432;28;99657;-76
2021/06/18 03:57:44;;;;;;;15.10;13.55;;;;;;;17.67;41.62;100893.53;4858300;28;98116;-74
2021/06/18 04:00:13;;;;;;;12.55;11.10;;;;;;;17.67;41.49;100893.53;4869442;28;98057;-76
2021/06/18 04:02:42;;;;;;;12.68;11.43;;;;;;;17.68;41.49;100892.63;4885724;28;98927;-76
2021/06/18 04:05:16;;;;;;;12.43;11.23;;;;;;;17.67;41.43;100889.94;4859075;28;98714;-75
2021/06/18 04:07:45;;;;;;;10.70;9.80;;;;;;;17.69;41.36;100889.00;4894593;28;97311;-76
2021/06/18 04:10:14;;;;;;;11.40;10.30;;;;;;;17.68;41.23;100884.53;4873296;28;97728;-75
2021/06/18 04:12:45;;;;;;;10.93;9.93;;;;;;;17.69;41.02;100883.63;4867331;28;98929;-75
2021/06/18 04:15:15;;;;;;;11.27;10.27;;;;;;;17.69;41.27;100883.63;4862713;28;99582;-75
2021/06/18 04:17:43;;;;;;;10.98;9.95;;;;;;;17.70;41.00;100890.81;4857961;28;98006;-75
2021/06/18 04:20:12;;;;;;;12.13;10.93;;;;;;;17.70;40.96;100888.13;4837986;28;97760;-75
2021/06/18 04:22:41;;;;;;;11.07;10.05;;;;;;;17.70;41.01;100893.50;4874207;28;99893;-75
2021/06/18 04:25:10;;;;;;;11.65;10.55;;;;;;;17.70;40.89;100897.97;4860376;28;97788;-76
2021/06/18 04:27:38;;;;;;;11.63;10.20;;;;;;;17.70;41.09;100897.97;4854080;28;98278;-74
2021/06/18 04:30:09;;;;;;;12.57;11.32;;;;;;;17.71;41.18;100895.28;4853869;28;97402;-74
2021/06/18 04:32:39;;;;;;;14.93;11.10;;;;;;;17.72;40.93;100899.78;4887585;28;98011;-75
2021/06/18 04:35:08;;;;;;;11.93;10.77;;;;;;;17.73;41.13;100896.16;4882272;28;100880;-74
2021/06/18 04:37:37;;;;;;;11.75;10.73;;;;;;;17.75;40.92;100898.84;4879449;28;97300;-75
2021/06/18 04:40:07;;;;;;;13.25;10.25;;;;;;;17.75;41.26;100906.91;4849494;28;98028;-74
2021/06/18 04:42:36;;;;;;;11.65;10.60;;;;;;;17.77;41.14;100903.31;4862457;28;97399;-75
2021/06/18 04:45:05;;;;;;;10.68;9.77;;;;;;;17.80;40.91;100908.66;4832481;28;99897;-74
2021/06/18 04:47:34;;;;;;;12.05;10.85;;;;;;;17.82;40.85;100908.69;4883262;28;98199;-74
2021/06/18 04:50:03;;;;;;;11.43;10.32;;;;;;;17.82;40.90;100914.06;4851206;28;97412;-77
2021/06/18 04:52:32;;;;;;;11.48;10.40;;;;;;;17.84;40.80;100910.44;4865960;28;97941;-75
2021/06/18 04:55:02;;;;;;;12.32;11.13;;;;;;;17.87;40.87;100904.16;4854862;28;98077;-68
2021/06/18 04:57:29;;;;;;;10.90;9.80;;;;;;;17.91;40.84;100905.94;4879027;28;96867;-68
2021/06/18 04:59:57;;;;;;;12.32;10.73;;;;;;;17.95;40.94;100908.56;4848485;28;97114;-66
2021/06/18 05:02:25;;;;;;;14.60;11.65;;;;;;;17.97;40.87;100906.78;4876384;28;99878;-76
2021/06/18 05:04:54;;;;;;;11.77;10.57;;;;;;;18.00;40.70;100906.72;4833635;28;99613;-76
2021/06/18 05:07:22;;;;;;;13.55;10.65;;;;;;;18.06;40.71;100907.66;4854761;28;98075;-75
2021/06/18 05:09:50;;;;;;;12.68;11.45;;;;;;;18.10;40.59;100912.09;4865122;28;97104;-76
2021/06/18 05:12:18;;;;;;;11.45;10.32;;;;;;;18.14;40.83;100913.84;4836299;28;100506;-76
2021/06/18 05:14:46;;;;;;;11.65;9.63;;;;;;;18.16;40.72;100909.34;4890815;28;100560;-66
2021/06/18 05:17:14;;;;;;;11.25;10.13;;;;;;;18.20;40.95;100913.81;4875586;28;98881;-67
2021/06/18 05:19:42;;;;;;;13.48;10.52;;;;;;;18.26;40.69;100911.09;4867173;28;98044;-66
2021/06/18 05:22:11;;;;;;;13.25;11.85;;;;;;;18.29;40.86;100901.16;4883228;28;99446;-66
2021/06/18 05:24:39;;;;;;;12.90;11.57;;;;;;;18.32;41.05;100908.31;4871013;28;99656;-66
2021/06/18 05:27:07;;;;;;;11.55;10.13;;;;;;;18.38;40.83;100909.19;4846760;28;98253;-67
2021/06/18 05:29:36;;;;;;;11.38;10.20;;;;;;;18.43;40.73;100907.31;4852577;28;97153;-67
2021/06/18 05:32:04;;;;;;;12.68;11.13;;;;;;;18.81;41.31;100910.56;4853471;28;97059;-67
2021/06/18 05:34:32;;;;;;;12.38;11.13;;;;;;;18.67;41.63;100909.78;4853992;28;99445;-67
2021/06/18 05:37:00;;;;;;;13.10;11.00;;;;;;;18.66;41.37;100915.22;4861678;28;97437;-67
2021/06/18 05:39:29;;;;;;;11.90;10.57;;;;;;;18.67;41.09;100915.19;4853972;28;97101;-67
2021/06/18 05:41:57;;;;;;;11.60;10.32;;;;;;;18.70;41.31;100917.88;4867021;28;97699;-67
2021/06/18 05:44:24;;;;;;;10.95;10.00;;;;;;;18.74;41.03;100916.03;4882530;28;98350;-69
2021/06/18 05:46:52;;;;;;;12.90;9.43;;;;;;;18.79;41.05;100908.78;4852550;28;97446;-66
2021/06/18 05:49:20;;;;;;;11.02;9.93;;;;;;;18.84;41.28;100915.91;4883917;28;97574;-68
2021/06/18 05:51:48;;;;;;;12.35;11.13;;;;;;;18.90;41.08;100915.84;4851797;28;99520;-68
2021/06/18 05:54:16;;;;;;;13.68;9.88;;;;;;;18.95;41.06;100914.00;4848845;28;99059;-67
2021/06/18 05:56:45;;;;;;;11.23;8.57;;;;;;;18.99;40.93;100920.25;4879198;28;97789;-69
2021/06/18 05:59:12;;;;;;;10.00;9.05;;;;;;;19.05;41.04;100930.97;4852772;28;98023;-68
2021/06/18 06:01:40;;;;;;;9.73;8.68;;;;;;;19.10;40.87;100929.09;4853292;28;99723;-67
2021/06/18 06:04:08;;;;;;;10.52;9.07;;;;;;;19.14;40.60;100930.88;4848183;28;100898;-67
2021/06/18 06:06:36;;;;;;;10.40;9.40;;;;;;;19.18;40.45;100921.84;4869013;28;98014;-66
2021/06/18 06:09:04;;;;;;;10.30;9.30;;;;;;;19.22;40.87;100929.00;4851291;28;98067;-67
2021/06/18 06:11:33;;;;;;;50.40;33.50;;;;;;;19.29;40.69;100932.50;4856667;28;97554;-68
2021/06/18 06:14:04;;;;;;;13.73;11.30;;;;;;;19.34;40.61;100944.16;4856368;28;97555;-66
2021/06/18 06:16:33;;;;;;;10.48;9.38;;;;;;;19.40;40.36;100950.38;4860437;28;96996;-67
2021/06/18 06:19:01;;;;;;;9.27;8.38;;;;;;;19.42;40.25;100953.06;4854451;28;97162;-68
2021/06/18 06:21:29;;;;;;;10.20;9.15;;;;;;;19.47;40.48;100948.47;4853299;28;98127;-67
2021/06/18 06:23:57;;;;;;;11.45;9.00;;;;;;;19.52;40.60;100935.81;4857269;28;97871;-68
2021/06/18 06:26:25;;;;;;;10.20;9.30;;;;;;;19.58;40.25;100939.34;4877546;28;98470;-67
2021/06/18 06:28:53;;;;;;;10.05;9.13;;;;;;;19.64;40.00;100944.66;4858376;28;97770;-68
2021/06/18 06:31:22;;;;;;;10.10;8.57;;;;;;;19.70;40.21;100944.56;4868817;28;98216;-68
2021/06/18 06:33:50;;;;;;;11.90;8.85;;;;;;;19.74;39.98;100938.22;4857295;28;97320;-69
2021/06/18 06:36:17;;;;;;;12.20;8.82;;;;;;;19.78;39.77;100933.66;4854873;28;97678;-67
2021/06/18 06:38:45;;;;;;;9.23;8.25;;;;;;;19.82;40.26;100930.00;4860671;28;97334;-69
2021/06/18 06:41:13;;;;;;;9.80;8.98;;;;;;;19.87;39.66;100931.72;4894051;28;100774;-69
2021/06/18 06:43:41;;;;;;;8.43;7.72;;;;;;;19.92;39.55;100929.88;4860842;28;97815;-68
2021/06/18 06:46:09;;;;;;;9.00;8.30;;;;;;;19.96;39.60;100925.31;4862407;28;98070;-68
2021/06/18 06:48:38;;;;;;;9.20;8.40;;;;;;;20.02;39.97;100924.34;4856192;28;98293;-81
2021/06/18 06:51:06;;;;;;;9.13;8.20;;;;;;;20.06;39.98;100916.16;4886672;28;100595;-79
2021/06/18 06:53:33;;;;;;;10.45;8.35;;;;;;;20.13;40.00;100922.34;4856014;28;98107;-82
2021/06/18 06:56:01;;;;;;;9.65;8.50;;;;;;;20.17;39.75;100925.00;4850826;28;98136;-80
2021/06/18 06:58:30;;;;;;;12.10;8.60;;;;;;;20.23;39.78;100927.59;4852602;28;97055;-81
2021/06/18 07:00:58;;;;;;;13.48;8.27;;;;;;;20.28;39.43;100931.13;4871419;28;98963;-80
2021/06/18 07:03:27;;;;;;;9.88;8.55;;;;;;;20.33;39.60;100925.63;4857208;28;98245;-81
2021/06/18 07:05:56;;;;;;;8.93;8.02;;;;;;;20.40;39.17;100927.31;4880265;28;97352;-79
2021/06/18 07:08:25;;;;;;;11.07;7.68;;;;;;;20.45;39.50;100937.13;4854357;28;98499;-82
2021/06/18 07:10:53;;;;;;;9.07;8.18;;;;;;;20.49;39.18;100927.16;4858703;28;98233;-78
2021/06/18 07:13:21;;;;;;;9.57;7.63;;;;;;;20.54;39.35;100931.59;4888214;28;99830;-81
2021/06/18 07:15:50;;;;;;;8.60;7.90;;;;;;;20.59;39.41;100926.13;4873651;28;98324;-81
2021/06/18 07:18:18;;;;;;;8.63;7.95;;;;;;;20.64;38.95;100929.63;4886392;28;98117;-82
2021/06/18 07:20:46;;;;;;;8.13;7.35;;;;;;;20.70;38.80;100926.81;4857617;28;99850;-79
2021/06/18 07:23:16;;;;;;;8.35;7.55;;;;;;;20.75;38.55;100930.31;4860060;28;97668;-81
2021/06/18 07:25:44;;;;;;;7.82;7.22;;;;;;;20.81;38.67;100933.78;4857716;28;97429;-81
2021/06/18 07:28:12;;;;;;;8.57;7.72;;;;;;;20.89;38.65;100939.06;4855988;28;97488;-81
2021/06/18 07:30:41;;;;;;;8.35;7.65;;;;;;;20.97;38.59;100937.13;4854946;28;97768;-80
2021/06/18 07:33:09;;;;;;;7.78;7.18;;;;;;;21.02;38.06;100942.41;4890801;28;99104;-82
2021/06/18 07:35:38;;;;;;;8.80;8.10;;;;;;;21.08;38.23;100943.22;4853527;28;96974;-80
2021/06/18 07:38:06;;;;;;;9.45;8.48;;;;;;;21.13;38.16;100932.31;4855126;28;97335;-79
2021/06/18 07:40:35;;;;;;;15.23;13.25;;;;;;;21.19;37.78;100934.91;4857533;28;98893;-81
2021/06/18 07:43:03;;;;;;;9.15;8.38;;;;;;;21.23;37.98;100921.31;4868551;28;98596;-81
2021/06/18 07:45:31;;;;;;;10.07;9.30;;;;;;;21.31;37.73;100922.00;4855605;28;96919;-82
2021/06/18 07:47:59;;;;;;;15.82;13.68;;;;;;;21.35;37.56;100923.75;4857188;28;97961;-81
2021/06/18 07:50:27;;;;;;;9.50;8.70;;;;;;;21.41;37.60;100917.31;4887263;28;99687;-80
2021/06/18 07:52:55;;;;;;;8.18;7.55;;;;;;;21.45;37.65;100919.03;4849067;28;100074;-81
2021/06/18 07:55:23;;;;;;;8.00;7.30;;;;;;;21.50;37.54;100918.00;4853854;28;98432;-81
2021/06/18 07:57:53;;;;;;;8.80;8.07;;;;;;;21.57;37.51;100919.66;4851641;28;99152;-80
2021/06/18 08:00:22;;;;;;;8.68;7.88;;;;;;;21.63;37.24;100911.41;4889090;28;99541;-80
2021/06/18 08:02:51;;;;;;;10.40;8.98;;;;;;;21.68;37.63;100912.19;4867578;28;99390;-80
2021/06/18 08:05:19;;;;;;;13.57;12.18;;;;;;;21.72;37.48;100911.22;4860483;28;97162;-80
2021/06/18 08:07:48;;;;;;;10.73;9.60;;;;;;;21.78;37.51;100907.47;4857233;28;97113;-81
2021/06/18 08:10:17;;;;;;;8.60;8.00;;;;;;;21.83;37.42;100906.44;4886720;28;97867;-79
2021/06/18 08:12:48;;;;;;;11.75;8.07;;;;;;;21.87;37.09;100908.13;4858526;28;97722;-79
2021/06/18 08:15:17;;;;;;;8.75;8.05;;;;;;;21.94;36.90;100907.06;4889492;28;97257;-82
2021/06/18 08:17:47;;;;;;;9.88;9.07;;;;;;;22.02;37.07;100903.31;4894401;28;98899;-80
2021/06/18 08:20:19;;;;;;;8.80;8.10;;;;;;;22.06;37.05;100897.75;4858869;28;99550;-79
2021/06/18 08:22:48;;;;;;;10.90;9.90;;;;;;;22.16;36.72;100890.28;4892290;28;97631;-79
2021/06/18 08:25:16;;;;;;;8.75;7.85;;;;;;;22.23;36.64;100891.91;4889383;28;96905;-79
2021/06/18 08:27:45;;;;;;;9.38;8.40;;;;;;;22.28;36.67;100887.28;4860623;28;97182;-78
2021/06/18 08:30:14;;;;;;;8.40;7.70;;;;;;;22.34;36.55;100888.06;4863071;28;98090;-80
2021/06/18 08:32:52;;;;;;;8.38;7.70;;;;;;;22.39;36.36;100882.50;4857029;28;99151;-79
2021/06/18 08:35:21;;;;;;;8.25;7.55;;;;;;;22.45;36.55;100882.34;4862180;28;97464;-79
2021/06/18 08:37:49;;;;;;;9.15;7.00;;;;;;;22.50;36.09;100884.00;4888592;28;96991;-79
2021/06/18 08:40:17;;;;;;;7.93;7.22;;;;;;;22.56;36.17;100881.13;4857943;28;97605;-80
2021/06/18 08:42:46;;;;;;;9.50;8.65;;;;;;;22.55;36.16;100881.16;4852481;28;101616;-81
2021/06/18 08:45:14;;;;;;;9.43;8.60;;;;;;;22.60;36.08;100890.06;4838320;28;96917;-78
2021/06/18 08:47:45;;;;;;;11.77;8.90;;;;;;;22.65;36.09;100890.84;4883891;28;97394;-79
2021/06/18 08:50:22;;;;;;;8.27;7.47;;;;;;;22.72;36.10;100893.34;4860248;28;97980;-80
2021/06/18 08:52:51;;;;;;;8.90;7.47;;;;;;;22.78;35.94;100897.72;4872103;28;100436;-80
2021/06/18 08:55:20;;;;;;;8.77;7.88;;;;;;;22.82;35.80;100889.47;4892034;28;96913;-79
2021/06/18 08:57:49;;;;;;;7.38;6.57;;;;;;;22.87;35.78;100889.34;4869471;28;97259;-79
2021/06/18 09:00:18;;;;;;;7.00;6.60;;;;;;;22.93;35.76;100891.88;4851827;28;98053;-79
2021/06/18 09:02:46;;;;;;;8.13;6.85;;;;;;;22.97;35.73;100888.16;4870085;28;99703;-78
2021/06/18 09:05:16;;;;;;;6.63;6.20;;;;;;;23.03;35.69;100889.78;4870953;28;97030;-79
2021/06/18 09:07:49;;;;;;;7.68;7.18;;;;;;;23.08;35.41;100887.84;4884015;28;97602;-79
2021/06/18 09:10:25;;;;;;;8.32;7.50;;;;;;;23.13;35.27;100892.19;4887899;28;99721;-81
2021/06/18 09:13:11;;;;;;;8.45;7.65;;;;;;;23.16;34.95;100885.81;4854578;28;99293;-81
2021/06/18 09:15:42;;;;;;;7.75;6.93;;;;;;;23.22;35.09;100878.34;4855847;28;96824;-80
2021/06/18 09:18:36;;;;;;;7.47;6.82;;;;;;;23.27;35.29;100890.00;4850145;28;98114;-79
2021/06/18 09:21:17;;;;;;;7.35;6.72;;;;;;;23.33;34.72;100886.19;4844285;28;99858;-79
2021/06/18 09:23:47;;;;;;;7.00;6.50;;;;;;;23.41;35.18;100889.59;4887818;28;99579;-80
2021/06/18 09:26:20;;;;;;;7.15;6.65;;;;;;;23.45;35.02;100883.13;4861837;28;98095;-81
2021/06/18 09:29:12;;;;;;;7.90;7.20;;;;;;;23.47;34.71;100879.44;4856566;28;97697;-80
2021/06/18 09:31:42;;;;;;;9.43;7.45;;;;;;;23.56;34.89;100879.16;4868981;28;99523;-79
2021/06/18 09:34:13;;;;;;;7.10;6.50;;;;;;;23.61;34.82;100879.91;4855317;28;100074;-78
2021/06/18 09:36:45;;;;;;;7.78;7.00;;;;;;;23.70;34.71;100884.16;4887954;28;97830;-81
2021/06/18 09:39:17;;;;;;;7.07;6.57;;;;;;;23.74;34.63;100881.31;4890763;28;97595;-79
2021/06/18 09:41:46;;;;;;;7.15;6.57;;;;;;;23.81;34.54;100876.56;4863895;28;97805;-80
2021/06/18 09:44:16;;;;;;;6.85;6.20;;;;;;;23.88;34.44;100873.59;4865072;28;99383;-85
2021/06/18 09:46:50;;;;;;;6.88;6.38;;;;;;;23.95;33.89;100873.44;4879951;28;97378;-80
2021/06/18 09:49:39;;;;;;;7.70;7.10;;;;;;;24.00;34.29;100872.34;4890808;28;99489;-80
2021/06/18 09:52:10;;;;;;;7.35;6.65;;;;;;;24.06;34.14;100876.69;4856479;28;98981;-81
2021/06/18 09:54:42;;;;;;;6.90;6.15;;;;;;;24.14;34.15;100870.03;4861255;28;98633;-81
2021/06/18 09:57:13;;;;;;;10.50;9.40;;;;;;;24.21;33.98;100873.47;4891648;28;98372;-81
2021/06/18 09:59:45;;;;;;;10.90;9.80;;;;;;;24.28;34.03;100865.03;4886672;28;97725;-80
2021/06/18 10:02:15;;;;;;;8.57;7.88;;;;;;;24.33;33.99;100863.06;4867675;28;100044;-81
2021/06/18 10:04:43;;;;;;;7.30;6.60;;;;;;;24.38;33.52;100871.03;4859467;28;99657;-81
2021/06/18 10:07:13;;;;;;;7.45;6.40;;;;;;;24.42;33.41;100878.19;4856737;28;97769;-82
2021/06/18 10:09:41;;;;;;;10.27;9.38;;;;;;;24.48;33.08;100867.09;4852333;28;98270;-81
2021/06/18 10:12:10;;;;;;;7.65;6.88;;;;;;;24.57;33.14;100874.94;4855449;28;99704;-81
2021/06/18 10:14:38;;;;;;;9.43;6.75;;;;;;;24.64;33.03;100871.06;4891708;28;99733;-81
2021/06/18 10:17:06;;;;;;;6.20;5.80;;;;;;;24.69;33.21;100864.50;4841597;28;98068;-81
2021/06/18 10:19:35;;;;;;;6.28;5.70;;;;;;;24.76;32.65;100871.50;4871501;28;97023;-81
2021/06/18 10:22:09;;;;;;;7.85;6.85;;;;;;;24.83;32.86;100863.13;4861594;28;97957;-81
2021/06/18 10:24:42;;;;;;;6.03;5.53;;;;;;;24.88;32.68;100863.84;4861245;28;98913;-81
2021/06/18 10:27:16;;;;;;;7.13;6.25;;;;;;;24.96;32.21;100859.91;4880199;28;97798;-80
2021/06/18 10:29:45;;;;;;;6.30;5.80;;;;;;;25.00;32.52;100847.97;4877315;28;98313;-83
2021/06/18 10:32:34;;;;;;;6.32;5.72;;;;;;;25.11;31.83;100856.63;4871535;28;101252;-82
2021/06/18 10:35:06;;;;;;;12.20;8.95;;;;;;;25.19;32.26;100849.06;4873578;28;101109;-81
2021/06/18 10:37:47;;;;;;;6.60;6.10;;;;;;;25.27;31.55;100851.47;4876030;28;97291;-82
2021/06/18 10:40:17;;;;;;;5.32;5.03;;;;;;;25.32;31.83;100855.78;4857265;28;97287;-82
2021/06/18 10:43:10;;;;;;;9.55;5.15;;;;;;;25.38;31.58;100847.38;4892463;28;98098;-81
2021/06/18 10:46:04;;;;;;;29.63;26.13;;;;;;;25.45;31.70;100851.69;4878867;28;100037;-82
2021/06/18 10:49:04;;;;;;;9.45;7.05;;;;;;;25.50;31.34;100836.03;4850876;28;98953;-80
2021/06/18 10:51:42;;;;;;;6.65;5.88;;;;;;;25.54;30.38;100842.28;4855105;28;97620;-81
2021/06/18 10:54:15;;;;;;;6.28;5.68;;;;;;;25.61;31.58;100831.03;4857676;28;97887;-81
2021/06/18 10:57:12;;;;;;;8.45;5.95;;;;;;;25.68;30.97;100840.75;4873831;28;101642;-80
2021/06/18 10:59:43;;;;;;;7.15;5.38;;;;;;;25.73;31.51;100835.09;4870189;28;97689;-80
2021/06/18 11:02:31;;;;;;;7.38;6.05;;;;;;;25.82;30.96;100828.38;4888147;28;97808;-81
2021/06/18 11:05:00;;;;;;;6.53;5.75;;;;;;;25.89;31.57;100829.94;4861266;28;96960;-80
2021/06/18 11:07:29;;;;;;;5.82;5.25;;;;;;;25.98;31.18;100826.84;4859652;28;99190;-80
2021/06/18 11:09:57;;;;;;;8.57;5.38;;;;;;;26.03;31.14;100824.81;4855205;28;97305;-79
2021/06/18 11:12:50;;;;;;;6.55;5.97;;;;;;;26.17;29.77;100823.28;4853956;28;97744;-79
2021/06/18 11:15:40;;;;;;;7.17;5.87;;;;;;;26.30;29.44;100820.91;4872423;28;99990;-79
2021/06/18 11:18:14;;;;;;;7.03;6.38;;;;;;;26.39;28.81;100817.75;4860037;28;100240;-80
2021/06/18 11:21:07;;;;;;;6.20;5.80;;;;;;;26.51;28.81;100815.41;4857132;28;98051;-80
2021/06/18 11:23:38;;;;;;;6.15;5.55;;;;;;;26.60;28.65;100809.53;4849230;28;98157;-80
2021/06/18 11:26:08;;;;;;;5.97;5.57;;;;;;;26.63;29.07;100814.88;4850280;28;97915;-77
2021/06/18 11:28:51;;;;;;;10.50;5.55;;;;;;;26.67;29.14;100811.03;4852643;28;98852;-77
2021/06/18 11:31:22;;;;;;;6.25;5.68;;;;;;;26.73;29.18;100813.50;4884639;28;97634;-76